createdAt,value
2017-10-13T00:01:42.487Z,6.77
2017-10-13T00:04:09.939Z,6.83
2017-10-13T00:06:37.414Z,6.63
2017-10-13T00:09:04.875Z,6.23
2017-10-13T00:11:32.339Z,6.07
2017-10-13T00:13:59.831Z,6.50
2017-10-13T00:16:28.055Z,5.90
2017-10-13T00:18:55.522Z,6.80
2017-10-13T00:21:22.994Z,7.93
2017-10-13T00:23:50.459Z,7.23
2017-10-13T00:26:17.918Z,7.33
2017-10-13T00:28:45.402Z,8.67
2017-10-13T00:31:13.631Z,8.10
2017-10-13T00:33:41.111Z,7.90
2017-10-13T00:36:10.078Z,8.37
2017-10-13T00:38:37.553Z,8.50
2017-10-13T00:41:05.015Z,7.73
2017-10-13T00:43:32.494Z,7.60
2017-10-13T00:46:00.755Z,7.10
2017-10-13T00:48:28.219Z,7.63
2017-10-13T00:50:55.686Z,7.27
2017-10-13T00:53:23.927Z,6.70
2017-10-13T00:55:51.387Z,7.50
2017-10-13T00:58:18.872Z,6.73
2017-10-13T01:00:47.107Z,7.37
2017-10-13T01:03:14.582Z,7.00
2017-10-13T01:05:42.055Z,7.67
2017-10-13T01:08:10.276Z,6.80
2017-10-13T01:10:37.777Z,6.07
2017-10-13T01:13:05.226Z,6.50
2017-10-13T01:15:32.687Z,6.33
2017-10-13T01:18:00.182Z,7.10
2017-10-13T01:20:27.634Z,6.80
2017-10-13T01:22:55.114Z,6.20
2017-10-13T01:25:22.571Z,5.83
2017-10-13T01:27:50.048Z,6.73
2017-10-13T01:30:17.527Z,7.70
2017-10-13T01:32:44.994Z,6.50
2017-10-13T01:35:13.231Z,6.17
2017-10-13T01:37:40.698Z,6.20
2017-10-13T01:40:08.191Z,6.03
2017-10-13T01:42:36.417Z,6.03
2017-10-13T01:45:03.880Z,6.00
2017-10-13T01:47:31.359Z,6.80
2017-10-13T01:49:58.835Z,6.23
2017-10-13T01:52:27.058Z,6.97
2017-10-13T01:54:54.526Z,6.63
2017-10-13T01:57:21.991Z,6.30
2017-10-13T01:59:49.464Z,6.13
2017-10-13T02:02:16.942Z,6.20
2017-10-13T02:04:44.419Z,7.40
2017-10-13T02:07:11.880Z,6.40
2017-10-13T02:09:39.355Z,7.67
2017-10-13T02:12:06.819Z,7.53
2017-10-13T02:14:34.325Z,7.10
2017-10-13T02:17:02.551Z,7.53
2017-10-13T02:19:30.015Z,6.97
2017-10-13T02:21:57.505Z,7.17
2017-10-13T02:24:25.732Z,6.17
2017-10-13T02:26:53.199Z,6.17
2017-10-13T02:29:20.674Z,7.13
2017-10-13T02:31:48.136Z,7.60
2017-10-13T02:34:16.387Z,6.50
2017-10-13T02:36:43.846Z,6.87
2017-10-13T02:39:11.299Z,6.80
2017-10-13T02:41:38.797Z,6.90
2017-10-13T02:44:06.247Z,6.50
2017-10-13T02:46:34.488Z,7.17
2017-10-13T02:49:01.952Z,6.33
2017-10-13T02:51:29.427Z,6.20
2017-10-13T02:53:56.882Z,6.10
2017-10-13T02:56:24.350Z,5.60
2017-10-13T02:58:52.590Z,6.37
2017-10-13T03:01:20.070Z,6.17
2017-10-13T03:03:48.316Z,6.20
2017-10-13T03:06:15.792Z,6.00
2017-10-13T03:08:44.011Z,6.47
2017-10-13T03:11:11.491Z,5.50
2017-10-13T03:13:38.962Z,7.10
2017-10-13T03:16:06.426Z,7.00
2017-10-13T03:18:33.895Z,6.93
2017-10-13T03:21:01.379Z,6.80
2017-10-13T03:23:28.839Z,6.37
2017-10-13T03:25:56.302Z,6.70
2017-10-13T03:28:23.779Z,6.80
2017-10-13T03:30:51.244Z,7.00
2017-10-13T03:33:18.715Z,6.60
2017-10-13T03:35:46.179Z,7.50
2017-10-13T03:38:14.421Z,7.20
2017-10-13T03:40:41.879Z,8.07
2017-10-13T03:43:09.360Z,7.93
2017-10-13T03:45:36.813Z,6.57
2017-10-13T03:48:04.754Z,8.40
2017-10-13T03:50:32.246Z,7.43
2017-10-13T03:53:01.207Z,7.33
2017-10-13T03:55:28.670Z,7.47
2017-10-13T03:57:56.151Z,7.30
2017-10-13T04:00:23.608Z,7.63
2017-10-13T04:02:51.103Z,6.90
2017-10-13T04:05:19.327Z,7.27
2017-10-13T04:07:46.798Z,7.07
2017-10-13T04:10:15.056Z,7.90
2017-10-13T04:12:43.173Z,6.83
2017-10-13T04:15:11.394Z,7.43
2017-10-13T04:17:38.876Z,7.50
2017-10-13T04:20:06.341Z,7.80
2017-10-13T04:22:33.811Z,7.57
2017-10-13T04:25:02.057Z,9.30
2017-10-13T04:27:29.522Z,9.30
2017-10-13T04:29:57.747Z,8.50
2017-10-13T04:32:25.222Z,9.90
2017-10-13T04:34:52.682Z,8.97
2017-10-13T04:37:20.159Z,8.90
2017-10-13T04:39:47.638Z,9.33
2017-10-13T04:42:15.096Z,8.13
2017-10-13T04:44:43.330Z,9.00
2017-10-13T04:47:10.807Z,8.73
2017-10-13T04:49:38.296Z,9.47
2017-10-13T04:52:06.544Z,10.40
2017-10-13T04:54:33.994Z,9.17
2017-10-13T04:57:01.459Z,9.60
2017-10-13T04:59:28.939Z,8.73
2017-10-13T05:01:57.181Z,8.30
2017-10-13T05:04:24.658Z,7.77
2017-10-13T05:06:52.882Z,7.40
2017-10-13T05:09:20.359Z,7.33
2017-10-13T05:11:47.831Z,7.80
2017-10-13T05:14:15.307Z,6.93
2017-10-13T05:16:43.535Z,7.23
2017-10-13T05:19:11.067Z,7.03
2017-10-13T05:21:38.545Z,8.07
2017-10-13T05:24:06.011Z,7.30
2017-10-13T05:26:33.492Z,7.70
2017-10-13T05:29:00.956Z,6.40
2017-10-13T05:31:28.426Z,7.20
2017-10-13T05:33:56.650Z,7.87
2017-10-13T05:36:24.115Z,7.40
2017-10-13T05:38:51.590Z,7.67
2017-10-13T05:41:19.050Z,7.97
2017-10-13T05:43:46.523Z,7.50
2017-10-13T05:46:14.751Z,8.10
2017-10-13T05:48:42.219Z,7.57
2017-10-13T05:51:09.695Z,7.57
2017-10-13T05:53:37.156Z,7.90
2017-10-13T05:56:04.651Z,7.43
2017-10-13T05:58:32.121Z,7.57
2017-10-13T06:00:59.583Z,9.20
2017-10-13T06:03:27.059Z,7.47
2017-10-13T06:05:54.526Z,8.00
2017-10-13T06:08:22.759Z,7.80
2017-10-13T06:10:50.226Z,8.03
2017-10-13T06:13:17.715Z,8.17
2017-10-13T06:15:45.287Z,7.70
2017-10-13T06:18:12.760Z,8.30
2017-10-13T06:20:40.983Z,8.07
2017-10-13T06:23:08.455Z,8.23
2017-10-13T06:25:35.934Z,9.10
2017-10-13T06:28:04.747Z,7.83
2017-10-13T06:30:32.215Z,8.60
2017-10-13T06:32:59.692Z,8.40
2017-10-13T06:35:27.177Z,9.07
2017-10-13T06:37:54.639Z,7.93
2017-10-13T06:40:22.122Z,8.60
2017-10-13T06:42:49.582Z,9.37
2017-10-13T06:45:17.042Z,8.90
2017-10-13T06:47:44.535Z,8.53
2017-10-13T06:50:11.986Z,8.87
2017-10-13T06:52:39.479Z,8.70
2017-10-13T06:55:06.947Z,10.33
2017-10-13T06:57:34.400Z,9.53
2017-10-13T07:00:01.875Z,9.80
2017-10-13T07:02:30.103Z,9.53
2017-10-13T07:04:57.581Z,9.77
2017-10-13T07:07:25.831Z,10.20
2017-10-13T07:09:53.312Z,10.10
2017-10-13T07:12:20.771Z,9.57
2017-10-13T07:14:49.023Z,9.83
2017-10-13T07:17:16.500Z,9.40
2017-10-13T07:19:43.962Z,9.50
2017-10-13T07:22:12.198Z,9.80
2017-10-13T07:24:39.683Z,10.70
2017-10-13T07:27:07.138Z,9.33
2017-10-13T07:29:34.619Z,10.03
2017-10-13T07:32:02.861Z,9.50
2017-10-13T07:34:30.324Z,10.10
2017-10-13T07:36:57.802Z,9.87
2017-10-13T07:39:26.040Z,9.63
2017-10-13T07:41:53.522Z,10.73
2017-10-13T07:44:20.982Z,11.23
2017-10-13T07:46:49.202Z,10.53
2017-10-13T07:49:16.700Z,10.80
2017-10-13T07:51:44.173Z,10.17
2017-10-13T07:54:11.632Z,11.50
2017-10-13T07:56:39.875Z,10.70
2017-10-13T07:59:07.343Z,9.47
2017-10-13T08:01:34.803Z,10.20
2017-10-13T08:04:02.271Z,10.47
2017-10-13T08:06:30.527Z,10.40
2017-10-13T08:08:58.002Z,11.97
2017-10-13T08:11:26.272Z,11.30
2017-10-13T08:13:53.732Z,11.40
2017-10-13T08:16:21.194Z,11.77
2017-10-13T08:18:49.439Z,11.50
2017-10-13T08:21:16.907Z,11.33
2017-10-13T08:23:44.383Z,12.50
2017-10-13T08:26:12.613Z,13.93
2017-10-13T08:28:40.105Z,13.30
2017-10-13T08:31:07.570Z,13.80
2017-10-13T08:33:35.799Z,14.30
2017-10-13T08:36:03.282Z,13.10
2017-10-13T08:38:30.771Z,12.70
2017-10-13T08:40:59.007Z,13.40
2017-10-13T08:43:26.495Z,15.00
2017-10-13T08:45:54.731Z,14.83
2017-10-13T08:48:22.194Z,15.03
2017-10-13T08:50:49.672Z,15.37
2017-10-13T08:53:17.153Z,15.00
2017-10-13T08:55:44.619Z,16.50
2017-10-13T08:58:12.084Z,15.77
2017-10-13T09:00:39.565Z,16.20
2017-10-13T09:03:07.048Z,14.40
2017-10-13T09:05:34.526Z,13.50
2017-10-13T09:08:02.758Z,13.13
2017-10-13T09:10:30.226Z,13.20
2017-10-13T09:12:57.712Z,13.03
2017-10-13T09:15:25.935Z,13.00
2017-10-13T09:17:53.420Z,12.10
2017-10-13T09:20:20.884Z,12.50
2017-10-13T09:22:53.957Z,12.70
2017-10-13T09:25:21.434Z,13.40
2017-10-13T09:27:48.893Z,11.50
2017-10-13T09:30:17.138Z,12.13
2017-10-13T09:32:44.614Z,12.23
2017-10-13T09:35:12.094Z,13.03
2017-10-13T09:37:40.333Z,13.43
2017-10-13T09:40:07.795Z,12.40
2017-10-13T09:42:35.274Z,11.60
2017-10-13T09:45:03.581Z,11.63
2017-10-13T09:47:31.059Z,10.83
2017-10-13T09:49:58.510Z,10.33
2017-10-13T09:52:25.980Z,9.50
2017-10-13T09:54:53.445Z,10.37
2017-10-13T09:57:20.907Z,11.90
2017-10-13T09:59:48.393Z,12.20
2017-10-13T10:02:15.863Z,11.93
2017-10-13T10:04:43.339Z,12.87
2017-10-13T10:07:10.815Z,11.90
2017-10-13T10:09:38.303Z,12.67
2017-10-13T10:12:05.767Z,12.57
2017-10-13T10:14:33.238Z,11.60
2017-10-13T10:17:00.749Z,12.33
2017-10-13T10:19:28.210Z,11.50
2017-10-13T10:21:55.663Z,10.90
2017-10-13T10:24:23.147Z,9.23
2017-10-13T10:26:51.369Z,8.30
2017-10-13T10:29:18.838Z,7.30
2017-10-13T10:31:46.323Z,7.20
2017-10-13T10:34:13.831Z,9.77
2017-10-13T10:36:41.311Z,8.60
2017-10-13T10:39:08.788Z,7.87
2017-10-13T10:41:36.251Z,8.20
2017-10-13T10:44:04.490Z,8.50
2017-10-13T10:46:31.982Z,7.63
2017-10-13T10:48:59.451Z,7.90
2017-10-13T10:51:26.922Z,7.00
2017-10-13T10:53:54.403Z,5.90
2017-10-13T10:56:21.893Z,5.73
2017-10-13T10:58:49.376Z,5.80
2017-10-13T11:01:17.603Z,5.70
2017-10-13T11:03:45.071Z,5.50
2017-10-13T11:06:12.572Z,5.30
2017-10-13T11:08:40.796Z,4.47
2017-10-13T11:11:08.262Z,4.00
2017-10-13T11:13:35.735Z,3.80
2017-10-13T11:16:03.203Z,3.20
2017-10-13T11:18:31.443Z,4.10
2017-10-13T11:20:58.904Z,2.90
2017-10-13T11:23:26.385Z,3.30
2017-10-13T11:25:53.858Z,2.87
2017-10-13T11:28:22.091Z,3.23
2017-10-13T11:30:49.625Z,3.30
2017-10-13T11:33:17.099Z,3.47
2017-10-13T11:35:44.572Z,3.40
2017-10-13T11:38:12.039Z,3.20
2017-10-13T11:40:39.518Z,3.43
2017-10-13T11:43:07.741Z,3.70
2017-10-13T11:45:35.224Z,3.23
2017-10-13T11:48:02.683Z,3.10
2017-10-13T11:50:30.162Z,3.20
2017-10-13T11:52:58.407Z,3.73
2017-10-13T11:55:25.867Z,3.83
2017-10-13T11:57:53.359Z,3.40
2017-10-13T12:00:21.582Z,3.70
2017-10-13T12:02:49.054Z,3.63
2017-10-13T12:05:16.539Z,3.77
2017-10-13T12:07:44.759Z,4.10
2017-10-13T12:10:12.216Z,3.87
2017-10-13T12:12:39.684Z,4.13
2017-10-13T12:15:07.158Z,4.53
2017-10-13T12:17:34.619Z,3.30
2017-10-13T12:20:02.107Z,3.50
2017-10-13T12:22:30.339Z,3.03
2017-10-13T12:24:57.861Z,3.13
2017-10-13T12:27:25.308Z,3.63
2017-10-13T12:29:52.780Z,3.33
2017-10-13T12:32:20.260Z,3.90
2017-10-13T12:34:47.727Z,3.90
2017-10-13T12:37:15.226Z,3.87
2017-10-13T12:39:42.676Z,3.83
2017-10-13T12:42:10.911Z,4.20
2017-10-13T12:44:39.143Z,4.03
2017-10-13T12:47:06.596Z,4.30
2017-10-13T12:49:34.162Z,4.60
2017-10-13T12:52:01.623Z,4.43
2017-10-13T12:54:29.090Z,4.00
2017-10-13T12:56:56.561Z,5.03
2017-10-13T12:59:24.019Z,4.53
2017-10-13T13:01:51.488Z,3.50
2017-10-13T13:04:18.952Z,3.90
2017-10-13T13:06:46.443Z,4.43
2017-10-13T13:09:14.673Z,4.03
2017-10-13T13:11:42.142Z,4.33
2017-10-13T13:14:09.593Z,4.30
2017-10-13T13:16:37.048Z,4.50
2017-10-13T13:19:04.521Z,4.60
2017-10-13T13:21:32.763Z,4.63
2017-10-13T13:24:00.222Z,3.83
2017-10-13T13:26:27.695Z,3.73
2017-10-13T13:28:55.205Z,4.60
2017-10-13T13:31:22.721Z,4.20
2017-10-13T13:33:50.173Z,4.17
2017-10-13T13:36:18.946Z,3.70
2017-10-13T13:38:46.395Z,3.70
2017-10-13T13:41:13.873Z,4.27
2017-10-13T13:43:41.334Z,4.60
2017-10-13T13:46:09.579Z,4.93
2017-10-13T13:48:37.039Z,5.23
2017-10-13T13:51:04.514Z,4.63
2017-10-13T13:53:31.986Z,5.23
2017-10-13T13:56:00.222Z,4.53
2017-10-13T13:58:27.699Z,4.57
2017-10-13T14:00:55.944Z,4.87
2017-10-13T14:03:23.481Z,4.40
2017-10-13T14:05:50.946Z,4.80
2017-10-13T14:08:18.404Z,4.30
2017-10-13T14:10:45.891Z,4.30
2017-10-13T14:13:13.344Z,4.53
2017-10-13T14:15:40.837Z,5.27
2017-10-13T14:18:09.068Z,4.80
2017-10-13T14:20:36.552Z,5.03
2017-10-13T14:23:04.000Z,4.30
2017-10-13T14:25:31.480Z,4.40
2017-10-13T14:27:59.705Z,4.33
2017-10-13T14:30:27.163Z,4.50
2017-10-13T14:32:54.661Z,5.20
2017-10-13T14:35:22.892Z,5.50
2017-10-13T14:37:50.390Z,4.70
2017-10-13T14:40:18.662Z,4.80
2017-10-13T14:42:46.206Z,5.77
2017-10-13T14:45:13.671Z,4.47
2017-10-13T14:47:41.134Z,6.00
2017-10-13T14:50:09.384Z,5.13
2017-10-13T14:52:36.849Z,5.00
2017-10-13T14:55:04.319Z,5.00
2017-10-13T14:57:31.827Z,4.90
2017-10-13T14:59:59.321Z,4.60
2017-10-13T15:02:26.780Z,4.93
2017-10-13T15:04:54.239Z,4.17
2017-10-13T15:07:21.714Z,4.47
2017-10-13T15:09:49.938Z,4.70
2017-10-13T15:12:17.398Z,5.67
2017-10-13T15:14:44.888Z,5.43
2017-10-13T15:17:13.111Z,4.73
2017-10-13T15:19:40.593Z,4.77
2017-10-13T15:22:08.054Z,5.20
2017-10-13T15:24:35.523Z,5.33
2017-10-13T15:27:08.744Z,5.57
2017-10-13T15:29:42.731Z,5.60
2017-10-13T15:32:15.977Z,6.40
2017-10-13T15:34:49.200Z,5.10
2017-10-13T15:37:16.767Z,5.13
2017-10-13T15:39:50.027Z,5.80
2017-10-13T15:42:23.319Z,6.17
2017-10-13T15:44:50.779Z,6.23
2017-10-13T15:47:24.107Z,5.80
2017-10-13T15:49:57.363Z,6.20
2017-10-13T15:52:27.928Z,7.17
2017-10-13T15:54:55.388Z,6.97
2017-10-13T15:57:22.855Z,7.10
2017-10-13T15:59:51.114Z,6.40
2017-10-13T16:02:18.585Z,6.80
2017-10-13T16:04:46.807Z,6.73
2017-10-13T16:07:14.263Z,5.43
2017-10-13T16:09:41.738Z,5.60
2017-10-13T16:12:09.215Z,4.93
2017-10-13T16:14:36.672Z,5.60
2017-10-13T16:17:04.144Z,5.70
2017-10-13T16:19:32.452Z,5.20
2017-10-13T16:21:59.906Z,5.70
2017-10-13T16:24:27.371Z,5.40
2017-10-13T16:26:55.623Z,5.70
2017-10-13T16:29:23.859Z,6.00
2017-10-13T16:31:51.335Z,5.80
2017-10-13T16:34:19.570Z,5.03
2017-10-13T16:36:47.107Z,5.70
2017-10-13T16:39:14.567Z,6.60
2017-10-13T16:41:42.056Z,7.77
2017-10-13T16:44:09.552Z,6.37
2017-10-13T16:46:37.814Z,6.00
2017-10-13T16:49:06.060Z,6.13
2017-10-13T16:51:33.526Z,6.13
2017-10-13T16:54:01.003Z,6.23
2017-10-13T16:56:29.237Z,5.97
2017-10-13T16:58:56.707Z,6.63
2017-10-13T17:01:24.174Z,5.53
2017-10-13T17:03:51.636Z,6.70
2017-10-13T17:06:19.119Z,6.40
2017-10-13T17:08:46.576Z,6.70
2017-10-13T17:11:14.054Z,7.00
2017-10-13T17:13:41.536Z,6.90
2017-10-13T17:16:08.996Z,6.43
2017-10-13T17:18:36.466Z,5.90
2017-10-13T17:21:03.943Z,6.27
2017-10-13T17:23:32.187Z,6.90
2017-10-13T17:25:59.672Z,6.90
2017-10-13T17:28:27.909Z,6.53
2017-10-13T17:30:55.379Z,6.47
2017-10-13T17:33:22.836Z,7.17
2017-10-13T17:35:50.311Z,7.57
2017-10-13T17:38:17.772Z,7.27
2017-10-13T17:40:46.015Z,7.37
2017-10-13T17:43:13.496Z,7.50
2017-10-13T17:45:40.988Z,7.30
2017-10-13T17:48:08.477Z,8.00
2017-10-13T17:50:35.938Z,7.63
2017-10-13T17:53:03.403Z,8.67
2017-10-13T17:55:30.895Z,8.80
2017-10-13T17:57:59.140Z,7.73
2017-10-13T18:00:27.382Z,8.37
2017-10-13T18:02:54.863Z,8.97
2017-10-13T18:05:22.323Z,8.13
2017-10-13T18:07:49.799Z,8.57
2017-10-13T18:10:17.251Z,8.20
2017-10-13T18:12:44.734Z,7.30
2017-10-13T18:15:12.227Z,7.97
2017-10-13T18:17:39.691Z,8.60
2017-10-13T18:20:07.170Z,7.87
2017-10-13T18:22:34.643Z,7.60
2017-10-13T18:25:02.241Z,7.80
2017-10-13T18:27:30.667Z,8.00
2017-10-13T18:29:58.130Z,8.33
2017-10-13T18:32:25.608Z,8.37
2017-10-13T18:34:53.908Z,8.20
2017-10-13T18:37:21.367Z,9.50
2017-10-13T18:39:48.856Z,7.60
2017-10-13T18:42:16.351Z,7.67
2017-10-13T18:44:44.587Z,7.70
2017-10-13T18:47:12.054Z,8.37
2017-10-13T18:49:40.291Z,8.90
2017-10-13T18:52:07.833Z,10.07
2017-10-13T18:54:36.204Z,9.70
2017-10-13T18:57:03.735Z,8.80
2017-10-13T18:59:31.296Z,9.67
2017-10-13T19:01:59.530Z,9.83
2017-10-13T19:04:27.022Z,10.20
2017-10-13T19:06:54.498Z,9.47
2017-10-13T19:09:22.744Z,10.17
2017-10-13T19:11:50.223Z,9.13
2017-10-13T19:14:17.692Z,10.67
2017-10-13T19:16:45.934Z,9.60
2017-10-13T19:19:14.931Z,10.23
2017-10-13T19:21:42.483Z,10.10
2017-10-13T19:24:10.040Z,9.87
2017-10-13T19:26:37.530Z,8.90
2017-10-13T19:29:05.776Z,10.63
2017-10-13T19:31:33.358Z,10.50
2017-10-13T19:34:01.604Z,10.27
2017-10-13T19:36:29.128Z,9.87
2017-10-13T19:38:56.616Z,9.60
2017-10-13T19:41:24.083Z,10.73
2017-10-13T19:43:53.076Z,10.77
2017-10-13T19:46:20.562Z,10.37
2017-10-13T19:48:48.791Z,10.93
2017-10-13T19:51:16.359Z,10.70
2017-10-13T19:53:43.830Z,9.57
2017-10-13T19:56:11.329Z,10.60
2017-10-13T19:58:38.820Z,9.90
2017-10-13T20:01:06.296Z,10.23
2017-10-13T20:03:33.768Z,10.43
2017-10-13T20:06:02.134Z,9.83
2017-10-13T20:08:30.382Z,10.50
2017-10-13T20:10:57.893Z,10.80
2017-10-13T20:13:26.128Z,11.07
2017-10-13T20:15:53.626Z,11.10
2017-10-13T20:18:21.099Z,11.30
2017-10-13T20:20:48.584Z,12.40
2017-10-13T20:23:16.076Z,11.80
2017-10-13T20:25:44.341Z,12.33
2017-10-13T20:28:11.926Z,12.70
2017-10-13T20:30:39.410Z,12.00
2017-10-13T20:33:10.233Z,12.70
2017-10-13T20:35:37.698Z,11.50
2017-10-13T20:38:05.823Z,12.17
2017-10-13T20:40:33.297Z,11.73
2017-10-13T20:43:01.532Z,12.60
2017-10-13T20:45:29.333Z,11.60
2017-10-13T20:47:57.572Z,11.40
2017-10-13T20:50:25.045Z,12.13
2017-10-13T20:52:52.523Z,12.40
2017-10-13T20:55:20.770Z,12.97
2017-10-13T20:57:48.251Z,11.83
2017-10-13T21:00:16.492Z,14.07
2017-10-13T21:02:43.954Z,14.20
2017-10-13T21:05:11.462Z,15.17
2017-10-13T21:07:38.919Z,13.80
2017-10-13T21:10:06.413Z,13.93
2017-10-13T21:12:33.875Z,14.30
2017-10-13T21:15:01.366Z,14.07
2017-10-13T21:17:29.597Z,13.30
2017-10-13T21:19:57.064Z,14.13
2017-10-13T21:22:24.555Z,13.67
2017-10-13T21:24:52.873Z,13.57
2017-10-13T21:27:20.364Z,14.60
2017-10-13T21:29:48.695Z,13.60
2017-10-13T21:32:16.180Z,13.37
2017-10-13T21:34:43.664Z,13.30
2017-10-13T21:37:11.143Z,13.13
2017-10-13T21:39:38.631Z,14.00
2017-10-13T21:42:06.138Z,13.40
2017-10-13T21:44:35.099Z,13.47
2017-10-13T21:47:02.571Z,13.10
2017-10-13T21:49:30.055Z,13.73
2017-10-13T21:51:58.300Z,13.20
2017-10-13T21:54:25.787Z,13.20
2017-10-13T21:56:54.022Z,13.70
2017-10-13T21:59:21.510Z,12.70
2017-10-13T22:01:49.742Z,11.90
2017-10-13T22:04:17.231Z,11.73
2017-10-13T22:06:44.707Z,13.80
2017-10-13T22:09:12.934Z,11.90
2017-10-13T22:11:40.410Z,11.73
2017-10-13T22:14:09.391Z,12.03
2017-10-13T22:16:36.880Z,12.70
2017-10-13T22:19:05.112Z,11.13
2017-10-13T22:21:32.577Z,11.77
2017-10-13T22:24:00.066Z,10.80
2017-10-13T22:26:28.311Z,12.30
2017-10-13T22:28:55.776Z,12.40
2017-10-13T22:31:24.026Z,10.80
2017-10-13T22:33:51.483Z,11.30
2017-10-13T22:36:18.947Z,11.90
2017-10-13T22:38:46.443Z,10.67
2017-10-13T22:41:14.671Z,11.87
2017-10-13T22:43:42.167Z,11.87
2017-10-13T22:46:09.634Z,11.00
2017-10-13T22:48:37.883Z,11.80
2017-10-13T22:51:05.345Z,11.53
2017-10-13T22:53:32.858Z,11.20
2017-10-13T22:56:00.310Z,11.83
2017-10-13T22:58:27.766Z,11.00
2017-10-13T23:00:55.254Z,11.23
2017-10-13T23:03:22.724Z,11.00
2017-10-13T23:05:50.208Z,11.53
2017-10-13T23:08:18.439Z,11.63
2017-10-13T23:10:45.918Z,10.23
2017-10-13T23:13:13.382Z,11.27
2017-10-13T23:15:41.611Z,11.13
2017-10-13T23:18:09.093Z,11.07
2017-10-13T23:20:36.559Z,11.77
2017-10-13T23:23:04.053Z,11.60
2017-10-13T23:25:32.294Z,12.00
2017-10-13T23:27:59.803Z,12.57
2017-10-13T23:30:27.267Z,12.23
2017-10-13T23:32:54.735Z,12.80
2017-10-13T23:35:22.215Z,11.53
2017-10-13T23:37:51.187Z,11.50
2017-10-13T23:43:21.384Z,11.50
2017-10-13T23:45:49.612Z,12.60
2017-10-13T23:48:17.076Z,13.50
2017-10-13T23:50:44.564Z,12.13
2017-10-13T23:53:12.048Z,12.77
2017-10-13T23:55:39.533Z,12.60
2017-10-13T23:58:07.015Z,12.83
